Hosmer, South Dakota
Current Conditions -  °F | °C
As of 2:52 AM on Sunday 23 Nov 2014 (Local Time) from KMBG Reporting Station
Light Rain Light Rain  
Wind Chill: 33°   Ceiling: 3500
Heat Index: 40°   Visibility: 9mi
Dew Point: 37°   Wind: 10mph
Humidity: 89%   Direction: 300°WNW
Pressure: 29.47"   Gusts: NA
Location:  45.58°N, 99.47°W
Report Text: KMBG 230852Z AUTO 30009KT 9SM -RA FEW028 OVC035 04/03 A2947 RMK AO2 SLP987 P0004 60011 T00440028 53025
Loading
Personal Weather Stations






























Interactive Weather Map New forecast layout! Learn more

10-Day Weather Forecast

Advertisements
Track Severe Weather on mobile